sensor_id;sensor_type;location;lat;lon;timestamp;temperature;humidity
76168;DHT22;64927;48.214;16.378;2023-02-19T00:00:00;15.60;52.40
76168;DHT22;64927;48.214;16.378;2023-02-19T00:02:26;15.70;52.50
76168;DHT22;64927;48.214;16.378;2023-02-19T00:04:51;15.60;52.80
76168;DHT22;64927;48.214;16.378;2023-02-19T00:07:19;15.50;53.50
76168;DHT22;64927;48.214;16.378;2023-02-19T00:09:45;15.40;54.20
76168;DHT22;64927;48.214;16.378;2023-02-19T00:12:13;15.30;54.80
76168;DHT22;64927;48.214;16.378;2023-02-19T00:14:41;15.20;55.70
76168;DHT22;64927;48.214;16.378;2023-02-19T00:17:07;15.10;55.80
76168;DHT22;64927;48.214;16.378;2023-02-19T00:19:33;15.10;56.00
76168;DHT22;64927;48.214;16.378;2023-02-19T00:21:58;15.10;56.10
76168;DHT22;64927;48.214;16.378;2023-02-19T00:24:24;15.00;56.40
76168;DHT22;64927;48.214;16.378;2023-02-19T00:26:50;15.00;56.70
76168;DHT22;64927;48.214;16.378;2023-02-19T00:29:18;14.90;57.30
76168;DHT22;64927;48.214;16.378;2023-02-19T00:31:44;14.90;57.20
76168;DHT22;64927;48.214;16.378;2023-02-19T00:34:11;14.70;57.50
76168;DHT22;64927;48.214;16.378;2023-02-19T00:36:40;14.90;57.30
76168;DHT22;64927;48.214;16.378;2023-02-19T00:39:07;14.90;57.40
76168;DHT22;64927;48.214;16.378;2023-02-19T00:41:33;15.00;57.00
76168;DHT22;64927;48.214;16.378;2023-02-19T00:44:05;15.00;56.70
76168;DHT22;64927;48.214;16.378;2023-02-19T00:46:34;15.00;56.70
76168;DHT22;64927;48.214;16.378;2023-02-19T00:49:00;15.00;56.90
76168;DHT22;64927;48.214;16.378;2023-02-19T00:51:28;14.90;57.00
76168;DHT22;64927;48.214;16.378;2023-02-19T00:53:55;14.80;57.30
76168;DHT22;64927;48.214;16.378;2023-02-19T00:56:21;14.80;57.20
76168;DHT22;64927;48.214;16.378;2023-02-19T00:58:47;14.90;56.90
76168;DHT22;64927;48.214;16.378;2023-02-19T01:01:13;15.00;56.80
76168;DHT22;64927;48.214;16.378;2023-02-19T01:03:41;15.00;56.70
76168;DHT22;64927;48.214;16.378;2023-02-19T01:06:09;14.80;57.00
76168;DHT22;64927;48.214;16.378;2023-02-19T01:08:35;14.80;57.10
76168;DHT22;64927;48.214;16.378;2023-02-19T01:11:02;14.90;56.80
76168;DHT22;64927;48.214;16.378;2023-02-19T01:13:29;15.00;56.60
76168;DHT22;64927;48.214;16.378;2023-02-19T01:16:07;15.10;56.50
76168;DHT22;64927;48.214;16.378;2023-02-19T01:18:36;15.10;56.60
76168;DHT22;64927;48.214;16.378;2023-02-19T01:21:12;15.00;56.50
76168;DHT22;64927;48.214;16.378;2023-02-19T01:23:38;15.00;56.70
76168;DHT22;64927;48.214;16.378;2023-02-19T01:26:06;15.00;57.00
76168;DHT22;64927;48.214;16.378;2023-02-19T01:28:34;14.90;57.00
76168;DHT22;64927;48.214;16.378;2023-02-19T01:31:05;14.90;56.90
76168;DHT22;64927;48.214;16.378;2023-02-19T01:33:33;14.90;56.50
76168;DHT22;64927;48.214;16.378;2023-02-19T01:36:04;14.90;56.60
76168;DHT22;64927;48.214;16.378;2023-02-19T01:38:30;14.90;56.70
76168;DHT22;64927;48.214;16.378;2023-02-19T01:40:58;14.80;56.90
76168;DHT22;64927;48.214;16.378;2023-02-19T01:43:25;14.90;56.80
76168;DHT22;64927;48.214;16.378;2023-02-19T01:45:50;14.90;56.80
76168;DHT22;64927;48.214;16.378;2023-02-19T01:50:56;15.00;56.60
76168;DHT22;64927;48.214;16.378;2023-02-19T01:53:25;15.00;57.50
76168;DHT22;64927;48.214;16.378;2023-02-19T01:55:55;15.00;56.50
76168;DHT22;64927;48.214;16.378;2023-02-19T01:58:25;15.00;56.40
76168;DHT22;64927;48.214;16.378;2023-02-19T02:00:53;15.00;56.80
76168;DHT22;64927;48.214;16.378;2023-02-19T02:03:19;14.90;57.20
76168;DHT22;64927;48.214;16.378;2023-02-19T02:06:13;14.90;57.50
76168;DHT22;64927;48.214;16.378;2023-02-19T02:08:40;14.90;57.60
76168;DHT22;64927;48.214;16.378;2023-02-19T02:11:25;14.80;57.80
76168;DHT22;64927;48.214;16.378;2023-02-19T02:13:52;14.60;58.40
76168;DHT22;64927;48.214;16.378;2023-02-19T02:16:21;14.60;58.40
76168;DHT22;64927;48.214;16.378;2023-02-19T02:19:00;14.70;58.40
76168;DHT22;64927;48.214;16.378;2023-02-19T02:35:43;14.60;58.90
76168;DHT22;64927;48.214;16.378;2023-02-19T02:38:10;14.60;58.90
76168;DHT22;64927;48.214;16.378;2023-02-19T02:40:41;14.60;58.80
76168;DHT22;64927;48.214;16.378;2023-02-19T02:43:08;14.60;58.80
76168;DHT22;64927;48.214;16.378;2023-02-19T02:45:34;14.50;59.40
76168;DHT22;64927;48.214;16.378;2023-02-19T02:50:52;14.50;60.50
76168;DHT22;64927;48.214;16.378;2023-02-19T02:53:35;14.50;61.70
76168;DHT22;64927;48.214;16.378;2023-02-19T02:56:22;14.40;62.30
76168;DHT22;64927;48.214;16.378;2023-02-19T02:58:51;14.20;63.50
76168;DHT22;64927;48.214;16.378;2023-02-19T03:01:44;14.00;64.70
76168;DHT22;64927;48.214;16.378;2023-02-19T03:04:41;13.90;65.30
76168;DHT22;64927;48.214;16.378;2023-02-19T03:10:35;13.70;66.20
76168;DHT22;64927;48.214;16.378;2023-02-19T03:13:05;13.70;66.80
76168;DHT22;64927;48.214;16.378;2023-02-19T03:15:54;13.70;66.70
76168;DHT22;64927;48.214;16.378;2023-02-19T03:18:41;13.60;67.40
76168;DHT22;64927;48.214;16.378;2023-02-19T03:21:30;13.50;68.90
76168;DHT22;64927;48.214;16.378;2023-02-19T03:23:58;13.40;69.20
76168;DHT22;64927;48.214;16.378;2023-02-19T03:26:43;13.30;70.10
76168;DHT22;64927;48.214;16.378;2023-02-19T03:29:10;13.20;70.50
76168;DHT22;64927;48.214;16.378;2023-02-19T03:31:57;13.30;70.50
76168;DHT22;64927;48.214;16.378;2023-02-19T03:34:28;13.30;70.30
76168;DHT22;64927;48.214;16.378;2023-02-19T03:37:08;13.30;70.10
76168;DHT22;64927;48.214;16.378;2023-02-19T03:39:35;13.40;69.90
76168;DHT22;64927;48.214;16.378;2023-02-19T03:45:31;13.50;69.30
76168;DHT22;64927;48.214;16.378;2023-02-19T03:53:09;13.70;68.50
76168;DHT22;64927;48.214;16.378;2023-02-19T03:55:42;13.70;68.20
76168;DHT22;64927;48.214;16.378;2023-02-19T03:58:22;13.70;68.50
76168;DHT22;64927;48.214;16.378;2023-02-19T04:01:15;13.70;68.20
76168;DHT22;64927;48.214;16.378;2023-02-19T04:03:54;13.60;68.60
76168;DHT22;64927;48.214;16.378;2023-02-19T04:06:26;13.60;68.90
76168;DHT22;64927;48.214;16.378;2023-02-19T04:08:56;13.60;68.90
76168;DHT22;64927;48.214;16.378;2023-02-19T04:11:26;13.50;69.30
76168;DHT22;64927;48.214;16.378;2023-02-19T04:16:46;13.60;69.50
76168;DHT22;64927;48.214;16.378;2023-02-19T04:19:16;13.60;69.10
76168;DHT22;64927;48.214;16.378;2023-02-19T04:21:44;13.70;69.10
76168;DHT22;64927;48.214;16.378;2023-02-19T04:24:16;13.70;68.70
76168;DHT22;64927;48.214;16.378;2023-02-19T04:26:44;13.70;68.80
76168;DHT22;64927;48.214;16.378;2023-02-19T04:29:12;13.70;68.40
76168;DHT22;64927;48.214;16.378;2023-02-19T04:31:37;13.80;68.40
76168;DHT22;64927;48.214;16.378;2023-02-19T04:34:06;13.70;68.40
76168;DHT22;64927;48.214;16.378;2023-02-19T04:36:34;13.70;68.30
76168;DHT22;64927;48.214;16.378;2023-02-19T04:39:00;13.70;68.40
76168;DHT22;64927;48.214;16.378;2023-02-19T04:41:26;13.70;68.40
76168;DHT22;64927;48.214;16.378;2023-02-19T04:43:51;13.70;68.00
76168;DHT22;64927;48.214;16.378;2023-02-19T04:46:17;13.80;67.90
76168;DHT22;64927;48.214;16.378;2023-02-19T04:48:43;13.70;69.00
76168;DHT22;64927;48.214;16.378;2023-02-19T04:51:09;13.60;68.50
76168;DHT22;64927;48.214;16.378;2023-02-19T04:53:35;13.60;68.60
76168;DHT22;64927;48.214;16.378;2023-02-19T04:56:12;13.60;68.40
76168;DHT22;64927;48.214;16.378;2023-02-19T04:58:39;13.60;68.40
76168;DHT22;64927;48.214;16.378;2023-02-19T05:01:05;13.50;68.50
76168;DHT22;64927;48.214;16.378;2023-02-19T05:03:31;13.50;68.50
76168;DHT22;64927;48.214;16.378;2023-02-19T05:06:02;13.60;68.40
76168;DHT22;64927;48.214;16.378;2023-02-19T05:08:28;13.60;68.20
76168;DHT22;64927;48.214;16.378;2023-02-19T05:11:00;13.60;68.20
76168;DHT22;64927;48.214;16.378;2023-02-19T05:13:26;13.70;68.20
76168;DHT22;64927;48.214;16.378;2023-02-19T05:15:59;13.60;68.60
76168;DHT22;64927;48.214;16.378;2023-02-19T05:18:29;13.40;69.60
76168;DHT22;64927;48.214;16.378;2023-02-19T05:20:58;13.30;70.70
76168;DHT22;64927;48.214;16.378;2023-02-19T05:23:25;13.10;72.60
76168;DHT22;64927;48.214;16.378;2023-02-19T05:25:51;13.00;72.80
76168;DHT22;64927;48.214;16.378;2023-02-19T05:28:17;12.80;73.40
76168;DHT22;64927;48.214;16.378;2023-02-19T05:30:50;12.70;75.50
76168;DHT22;64927;48.214;16.378;2023-02-19T05:33:18;12.60;75.10
76168;DHT22;64927;48.214;16.378;2023-02-19T05:35:49;12.60;75.70
76168;DHT22;64927;48.214;16.378;2023-02-19T05:38:15;12.60;75.60
76168;DHT22;64927;48.214;16.378;2023-02-19T05:40:41;12.60;75.50
76168;DHT22;64927;48.214;16.378;2023-02-19T05:43:07;12.50;75.40
76168;DHT22;64927;48.214;16.378;2023-02-19T05:45:34;12.50;75.20
76168;DHT22;64927;48.214;16.378;2023-02-19T05:48:00;12.50;75.90
76168;DHT22;64927;48.214;16.378;2023-02-19T05:50:26;12.50;75.10
76168;DHT22;64927;48.214;16.378;2023-02-19T05:52:52;12.60;75.20
76168;DHT22;64927;48.214;16.378;2023-02-19T05:55:20;12.70;74.00
76168;DHT22;64927;48.214;16.378;2023-02-19T05:57:51;12.70;74.60
76168;DHT22;64927;48.214;16.378;2023-02-19T06:00:18;12.70;74.40
76168;DHT22;64927;48.214;16.378;2023-02-19T06:02:44;12.70;74.60
76168;DHT22;64927;48.214;16.378;2023-02-19T06:05:10;12.70;74.50
76168;DHT22;64927;48.214;16.378;2023-02-19T06:07:38;12.60;74.50
76168;DHT22;64927;48.214;16.378;2023-02-19T06:10:05;12.50;75.20
76168;DHT22;64927;48.214;16.378;2023-02-19T06:12:31;12.60;74.70
76168;DHT22;64927;48.214;16.378;2023-02-19T06:14:57;12.70;74.00
76168;DHT22;64927;48.214;16.378;2023-02-19T06:17:23;12.70;74.10
76168;DHT22;64927;48.214;16.378;2023-02-19T06:19:48;12.60;72.90
76168;DHT22;64927;48.214;16.378;2023-02-19T06:22:15;12.70;73.10
76168;DHT22;64927;48.214;16.378;2023-02-19T06:24:41;12.70;72.20
76168;DHT22;64927;48.214;16.378;2023-02-19T06:27:07;12.80;72.40
76168;DHT22;64927;48.214;16.378;2023-02-19T06:29:33;12.80;71.60
76168;DHT22;64927;48.214;16.378;2023-02-19T06:32:03;12.80;71.90
76168;DHT22;64927;48.214;16.378;2023-02-19T06:34:29;12.90;71.80
76168;DHT22;64927;48.214;16.378;2023-02-19T06:36:55;13.00;71.50
76168;DHT22;64927;48.214;16.378;2023-02-19T06:39:20;12.90;70.30
76168;DHT22;64927;48.214;16.378;2023-02-19T06:41:49;13.00;70.30
76168;DHT22;64927;48.214;16.378;2023-02-19T06:44:15;13.10;69.90
76168;DHT22;64927;48.214;16.378;2023-02-19T06:46:40;13.10;69.80
76168;DHT22;64927;48.214;16.378;2023-02-19T06:49:06;13.20;69.20
76168;DHT22;64927;48.214;16.378;2023-02-19T06:51:32;13.30;68.70
76168;DHT22;64927;48.214;16.378;2023-02-19T06:53:58;13.30;68.50
76168;DHT22;64927;48.214;16.378;2023-02-19T06:56:39;13.30;67.70
76168;DHT22;64927;48.214;16.378;2023-02-19T06:59:10;13.30;67.80
76168;DHT22;64927;48.214;16.378;2023-02-19T07:01:37;13.40;68.70
76168;DHT22;64927;48.214;16.378;2023-02-19T07:04:04;13.40;67.30
76168;DHT22;64927;48.214;16.378;2023-02-19T07:06:30;13.30;67.30
76168;DHT22;64927;48.214;16.378;2023-02-19T07:08:57;13.30;67.20
76168;DHT22;64927;48.214;16.378;2023-02-19T07:11:23;13.40;67.00
76168;DHT22;64927;48.214;16.378;2023-02-19T07:13:59;13.40;67.10
76168;DHT22;64927;48.214;16.378;2023-02-19T07:16:25;13.30;66.70
76168;DHT22;64927;48.214;16.378;2023-02-19T07:18:51;13.30;66.80
76168;DHT22;64927;48.214;16.378;2023-02-19T07:21:18;13.40;66.50
76168;DHT22;64927;48.214;16.378;2023-02-19T07:23:44;13.40;66.90
76168;DHT22;64927;48.214;16.378;2023-02-19T07:26:15;13.40;66.70
76168;DHT22;64927;48.214;16.378;2023-02-19T07:28:42;13.30;66.80
76168;DHT22;64927;48.214;16.378;2023-02-19T07:31:08;13.40;66.50
76168;DHT22;64927;48.214;16.378;2023-02-19T07:33:37;13.40;66.20
76168;DHT22;64927;48.214;16.378;2023-02-19T07:36:05;13.50;65.90
76168;DHT22;64927;48.214;16.378;2023-02-19T07:38:31;13.40;66.00
76168;DHT22;64927;48.214;16.378;2023-02-19T07:40:59;13.40;66.20
76168;DHT22;64927;48.214;16.378;2023-02-19T07:43:27;13.50;66.30
76168;DHT22;64927;48.214;16.378;2023-02-19T07:45:53;13.50;66.30
76168;DHT22;64927;48.214;16.378;2023-02-19T07:48:19;13.60;65.60
76168;DHT22;64927;48.214;16.378;2023-02-19T07:50:52;13.60;65.70
76168;DHT22;64927;48.214;16.378;2023-02-19T07:53:22;13.50;65.90
76168;DHT22;64927;48.214;16.378;2023-02-19T07:55:48;13.50;65.60
76168;DHT22;64927;48.214;16.378;2023-02-19T07:58:16;13.50;65.70
76168;DHT22;64927;48.214;16.378;2023-02-19T08:00:43;13.60;65.60
76168;DHT22;64927;48.214;16.378;2023-02-19T08:03:09;13.60;65.50
76168;DHT22;64927;48.214;16.378;2023-02-19T08:05:39;13.60;65.70
76168;DHT22;64927;48.214;16.378;2023-02-19T08:08:13;13.50;66.00
76168;DHT22;64927;48.214;16.378;2023-02-19T08:10:39;13.60;66.30
76168;DHT22;64927;48.214;16.378;2023-02-19T08:13:24;13.70;65.80
76168;DHT22;64927;48.214;16.378;2023-02-19T08:18:32;13.90;65.20
76168;DHT22;64927;48.214;16.378;2023-02-19T08:20:58;13.90;64.80
76168;DHT22;64927;48.214;16.378;2023-02-19T08:23:25;13.90;64.30
76168;DHT22;64927;48.214;16.378;2023-02-19T08:25:52;14.00;64.20
76168;DHT22;64927;48.214;16.378;2023-02-19T08:28:18;13.90;64.40
76168;DHT22;64927;48.214;16.378;2023-02-19T08:30:45;13.80;64.30
76168;DHT22;64927;48.214;16.378;2023-02-19T08:33:14;13.90;64.50
76168;DHT22;64927;48.214;16.378;2023-02-19T08:35:40;14.00;63.90
76168;DHT22;64927;48.214;16.378;2023-02-19T08:38:08;14.10;63.90
76168;DHT22;64927;48.214;16.378;2023-02-19T08:40:36;14.20;64.60
76168;DHT22;64927;48.214;16.378;2023-02-19T08:43:12;14.20;64.60
76168;DHT22;64927;48.214;16.378;2023-02-19T08:45:39;14.10;65.20
76168;DHT22;64927;48.214;16.378;2023-02-19T08:48:09;13.90;67.10
76168;DHT22;64927;48.214;16.378;2023-02-19T08:50:35;13.70;68.00
76168;DHT22;64927;48.214;16.378;2023-02-19T08:53:02;13.70;67.70
76168;DHT22;64927;48.214;16.378;2023-02-19T08:55:31;13.70;69.50
76168;DHT22;64927;48.214;16.378;2023-02-19T08:57:59;13.50;70.40
76168;DHT22;64927;48.214;16.378;2023-02-19T09:00:25;13.40;69.80
76168;DHT22;64927;48.214;16.378;2023-02-19T09:02:54;13.10;71.40
76168;DHT22;64927;48.214;16.378;2023-02-19T09:05:21;13.10;71.30
76168;DHT22;64927;48.214;16.378;2023-02-19T09:07:47;13.20;72.10
76168;DHT22;64927;48.214;16.378;2023-02-19T09:10:13;13.30;70.60
76168;DHT22;64927;48.214;16.378;2023-02-19T09:12:39;13.30;70.00
76168;DHT22;64927;48.214;16.378;2023-02-19T09:15:05;13.30;69.80
76168;DHT22;64927;48.214;16.378;2023-02-19T09:17:31;13.30;69.30
76168;DHT22;64927;48.214;16.378;2023-02-19T09:19:57;13.50;69.70
76168;DHT22;64927;48.214;16.378;2023-02-19T09:22:22;13.60;67.70
76168;DHT22;64927;48.214;16.378;2023-02-19T09:24:48;13.90;67.00
76168;DHT22;64927;48.214;16.378;2023-02-19T09:27:18;13.90;65.50
76168;DHT22;64927;48.214;16.378;2023-02-19T09:29:44;13.80;65.10
76168;DHT22;64927;48.214;16.378;2023-02-19T09:32:10;13.80;66.00
76168;DHT22;64927;48.214;16.378;2023-02-19T09:34:36;13.80;66.40
76168;DHT22;64927;48.214;16.378;2023-02-19T09:37:05;13.90;66.10
76168;DHT22;64927;48.214;16.378;2023-02-19T09:39:33;14.00;65.30
76168;DHT22;64927;48.214;16.378;2023-02-19T09:44:39;14.30;64.40
76168;DHT22;64927;48.214;16.378;2023-02-19T09:47:20;14.40;63.60
76168;DHT22;64927;48.214;16.378;2023-02-19T09:49:49;14.40;62.30
76168;DHT22;64927;48.214;16.378;2023-02-19T09:52:35;14.50;62.30
76168;DHT22;64927;48.214;16.378;2023-02-19T09:55:16;14.60;61.80
76168;DHT22;64927;48.214;16.378;2023-02-19T09:57:44;14.70;61.00
76168;DHT22;64927;48.214;16.378;2023-02-19T10:02:36;14.70;60.30
76168;DHT22;64927;48.214;16.378;2023-02-19T10:05:13;14.80;59.50
76168;DHT22;64927;48.214;16.378;2023-02-19T10:07:43;14.90;57.10
76168;DHT22;64927;48.214;16.378;2023-02-19T10:12:46;15.10;56.40
76168;DHT22;64927;48.214;16.378;2023-02-19T10:17:47;15.20;55.10
76168;DHT22;64927;48.214;16.378;2023-02-19T10:20:15;15.20;55.20
76168;DHT22;64927;48.214;16.378;2023-02-19T10:22:42;15.10;54.70
76168;DHT22;64927;48.214;16.378;2023-02-19T10:25:12;15.20;54.40
76168;DHT22;64927;48.214;16.378;2023-02-19T10:27:39;15.20;53.70
76168;DHT22;64927;48.214;16.378;2023-02-19T10:30:06;15.30;53.10
76168;DHT22;64927;48.214;16.378;2023-02-19T10:32:37;15.40;54.00
76168;DHT22;64927;48.214;16.378;2023-02-19T10:35:10;15.50;52.90
76168;DHT22;64927;48.214;16.378;2023-02-19T10:37:42;15.50;52.10
76168;DHT22;64927;48.214;16.378;2023-02-19T10:40:19;15.50;52.80
76168;DHT22;64927;48.214;16.378;2023-02-19T10:42:52;15.50;52.50
76168;DHT22;64927;48.214;16.378;2023-02-19T10:45:37;15.50;53.00
76168;DHT22;64927;48.214;16.378;2023-02-19T10:48:05;15.60;52.90
76168;DHT22;64927;48.214;16.378;2023-02-19T10:50:36;15.70;53.00
76168;DHT22;64927;48.214;16.378;2023-02-19T10:53:20;15.80;52.70
76168;DHT22;64927;48.214;16.378;2023-02-19T10:56:26;15.90;52.40
76168;DHT22;64927;48.214;16.378;2023-02-19T10:58:51;16.00;52.60
76168;DHT22;64927;48.214;16.378;2023-02-19T11:04:15;16.00;51.70
76168;DHT22;64927;48.214;16.378;2023-02-19T11:06:47;16.30;51.40
76168;DHT22;64927;48.214;16.378;2023-02-19T11:09:36;16.60;50.30
76168;DHT22;64927;48.214;16.378;2023-02-19T11:12:02;16.70;50.30
76168;DHT22;64927;48.214;16.378;2023-02-19T11:14:31;16.70;49.60
76168;DHT22;64927;48.214;16.378;2023-02-19T11:16:59;16.80;49.00
76168;DHT22;64927;48.214;16.378;2023-02-19T11:19:41;16.80;49.60
76168;DHT22;64927;48.214;16.378;2023-02-19T11:22:30;16.90;49.10
76168;DHT22;64927;48.214;16.378;2023-02-19T11:25:33;16.70;49.30
76168;DHT22;64927;48.214;16.378;2023-02-19T11:27:58;16.70;49.00
76168;DHT22;64927;48.214;16.378;2023-02-19T11:30:33;16.70;49.10
76168;DHT22;64927;48.214;16.378;2023-02-19T11:33:31;16.70;48.90
76168;DHT22;64927;48.214;16.378;2023-02-19T11:38:42;16.70;49.10
76168;DHT22;64927;48.214;16.378;2023-02-19T11:41:41;16.70;48.50
76168;DHT22;64927;48.214;16.378;2023-02-19T11:47:03;16.60;48.30
76168;DHT22;64927;48.214;16.378;2023-02-19T11:49:52;16.60;48.70
76168;DHT22;64927;48.214;16.378;2023-02-19T12:00:54;16.10;51.40
76168;DHT22;64927;48.214;16.378;2023-02-19T12:03:48;16.00;52.20
76168;DHT22;64927;48.214;16.378;2023-02-19T12:06:34;15.60;56.10
76168;DHT22;64927;48.214;16.378;2023-02-19T12:09:26;15.00;59.90
76168;DHT22;64927;48.214;16.378;2023-02-19T12:20:15;13.80;63.90
76168;DHT22;64927;48.214;16.378;2023-02-19T12:26:13;13.90;64.10
76168;DHT22;64927;48.214;16.378;2023-02-19T12:40:24;14.50;61.00
76168;DHT22;64927;48.214;16.378;2023-02-19T12:43:02;14.50;59.90
76168;DHT22;64927;48.214;16.378;2023-02-19T12:48:49;14.60;58.10
76168;DHT22;64927;48.214;16.378;2023-02-19T12:53:55;14.70;55.90
76168;DHT22;64927;48.214;16.378;2023-02-19T12:56:28;14.80;55.50
76168;DHT22;64927;48.214;16.378;2023-02-19T12:58:59;14.90;55.00
76168;DHT22;64927;48.214;16.378;2023-02-19T13:01:34;14.90;55.40
76168;DHT22;64927;48.214;16.378;2023-02-19T13:04:27;14.80;56.90
76168;DHT22;64927;48.214;16.378;2023-02-19T13:07:00;14.70;55.90
76168;DHT22;64927;48.214;16.378;2023-02-19T13:12:04;14.60;56.70
76168;DHT22;64927;48.214;16.378;2023-02-19T13:17:05;14.70;55.50
76168;DHT22;64927;48.214;16.378;2023-02-19T13:19:40;14.90;55.30
76168;DHT22;64927;48.214;16.378;2023-02-19T13:22:26;15.00;53.30
76168;DHT22;64927;48.214;16.378;2023-02-19T13:25:13;15.00;52.50
76168;DHT22;64927;48.214;16.378;2023-02-19T13:30:52;15.30;52.60
76168;DHT22;64927;48.214;16.378;2023-02-19T13:38:28;15.30;50.60
76168;DHT22;64927;48.214;16.378;2023-02-19T13:40:56;15.40;50.30
76168;DHT22;64927;48.214;16.378;2023-02-19T13:43:33;15.40;51.70
76168;DHT22;64927;48.214;16.378;2023-02-19T13:46:10;15.30;50.20
76168;DHT22;64927;48.214;16.378;2023-02-19T13:48:41;15.30;50.20
76168;DHT22;64927;48.214;16.378;2023-02-19T14:14:50;13.60;61.80
76168;DHT22;64927;48.214;16.378;2023-02-19T14:20:41;13.60;61.60
76168;DHT22;64927;48.214;16.378;2023-02-19T14:23:21;13.60;61.60
76168;DHT22;64927;48.214;16.378;2023-02-19T14:25:57;13.60;60.80
76168;DHT22;64927;48.214;16.378;2023-02-19T14:28:27;13.70;61.60
76168;DHT22;64927;48.214;16.378;2023-02-19T14:33:42;13.20;65.30
76168;DHT22;64927;48.214;16.378;2023-02-19T14:36:27;13.00;65.40
76168;DHT22;64927;48.214;16.378;2023-02-19T14:41:26;12.70;66.10
76168;DHT22;64927;48.214;16.378;2023-02-19T14:43:56;12.80;66.40
76168;DHT22;64927;48.214;16.378;2023-02-19T14:46:26;12.80;66.60
76168;DHT22;64927;48.214;16.378;2023-02-19T14:48:54;12.90;65.50
76168;DHT22;64927;48.214;16.378;2023-02-19T14:51:39;13.00;65.40
76168;DHT22;64927;48.214;16.378;2023-02-19T14:55:15;13.00;63.90
76168;DHT22;64927;48.214;16.378;2023-02-19T14:57:32;13.10;63.90
76168;DHT22;64927;48.214;16.378;2023-02-19T15:01:04;13.20;64.50
76168;DHT22;64927;48.214;16.378;2023-02-19T15:03:00;13.10;65.10
76168;DHT22;64927;48.214;16.378;2023-02-19T15:05:29;13.00;66.10
76168;DHT22;64927;48.214;16.378;2023-02-19T15:08:02;12.90;65.40
76168;DHT22;64927;48.214;16.378;2023-02-19T15:10:33;12.90;65.60
76168;DHT22;64927;48.214;16.378;2023-02-19T15:13:06;12.90;65.50
76168;DHT22;64927;48.214;16.378;2023-02-19T15:15:36;12.90;65.40
76168;DHT22;64927;48.214;16.378;2023-02-19T15:18:07;12.90;65.60
76168;DHT22;64927;48.214;16.378;2023-02-19T15:20:41;12.80;67.10
76168;DHT22;64927;48.214;16.378;2023-02-19T15:23:22;12.70;68.40
76168;DHT22;64927;48.214;16.378;2023-02-19T15:25:49;12.50;69.60
76168;DHT22;64927;48.214;16.378;2023-02-19T15:28:20;12.40;70.60
76168;DHT22;64927;48.214;16.378;2023-02-19T15:30:46;12.30;71.40
76168;DHT22;64927;48.214;16.378;2023-02-19T15:33:16;12.10;71.90
76168;DHT22;64927;48.214;16.378;2023-02-19T15:35:56;11.90;71.80
76168;DHT22;64927;48.214;16.378;2023-02-19T15:38:24;11.80;72.00
76168;DHT22;64927;48.214;16.378;2023-02-19T15:40:51;11.60;72.60
76168;DHT22;64927;48.214;16.378;2023-02-19T15:43:55;11.40;73.20
76168;DHT22;64927;48.214;16.378;2023-02-19T15:46:24;11.20;74.60
76168;DHT22;64927;48.214;16.378;2023-02-19T15:49:08;11.00;74.60
76168;DHT22;64927;48.214;16.378;2023-02-19T15:51:47;10.90;76.40
76168;DHT22;64927;48.214;16.378;2023-02-19T15:54:51;10.70;74.90
76168;DHT22;64927;48.214;16.378;2023-02-19T15:57:23;10.70;76.00
76168;DHT22;64927;48.214;16.378;2023-02-19T15:59:59;10.60;76.30
76168;DHT22;64927;48.214;16.378;2023-02-19T16:02:27;10.60;76.60
76168;DHT22;64927;48.214;16.378;2023-02-19T16:04:55;10.40;77.90
76168;DHT22;64927;48.214;16.378;2023-02-19T16:07:29;10.30;79.30
76168;DHT22;64927;48.214;16.378;2023-02-19T16:10:23;10.30;78.80
76168;DHT22;64927;48.214;16.378;2023-02-19T16:12:59;10.20;78.10
76168;DHT22;64927;48.214;16.378;2023-02-19T16:15:27;10.10;77.50
76168;DHT22;64927;48.214;16.378;2023-02-19T16:17:55;10.00;77.50
76168;DHT22;64927;48.214;16.378;2023-02-19T16:20:30;10.00;76.90
76168;DHT22;64927;48.214;16.378;2023-02-19T16:23:08;10.00;76.90
76168;DHT22;64927;48.214;16.378;2023-02-19T16:25:40;10.00;76.30
76168;DHT22;64927;48.214;16.378;2023-02-19T16:28:20;10.00;77.10
76168;DHT22;64927;48.214;16.378;2023-02-19T16:30:57;10.00;76.70
76168;DHT22;64927;48.214;16.378;2023-02-19T16:33:32;10.00;77.00
76168;DHT22;64927;48.214;16.378;2023-02-19T16:36:36;10.00;77.60
76168;DHT22;64927;48.214;16.378;2023-02-19T16:46:54;9.90;75.30
76168;DHT22;64927;48.214;16.378;2023-02-19T16:49:22;9.80;75.20
76168;DHT22;64927;48.214;16.378;2023-02-19T16:51:51;9.90;74.80
76168;DHT22;64927;48.214;16.378;2023-02-19T16:54:18;9.90;74.20
76168;DHT22;64927;48.214;16.378;2023-02-19T16:56:45;9.80;73.90
76168;DHT22;64927;48.214;16.378;2023-02-19T16:59:14;9.80;74.00
76168;DHT22;64927;48.214;16.378;2023-02-19T17:01:40;9.90;73.90
76168;DHT22;64927;48.214;16.378;2023-02-19T17:04:08;9.90;73.40
76168;DHT22;64927;48.214;16.378;2023-02-19T17:06:36;9.90;73.50
76168;DHT22;64927;48.214;16.378;2023-02-19T17:09:03;9.90;73.40
76168;DHT22;64927;48.214;16.378;2023-02-19T17:11:29;9.90;73.50
76168;DHT22;64927;48.214;16.378;2023-02-19T17:13:56;10.00;74.20
76168;DHT22;64927;48.214;16.378;2023-02-19T17:16:24;9.90;74.10
76168;DHT22;64927;48.214;16.378;2023-02-19T17:18:56;9.90;74.00
76168;DHT22;64927;48.214;16.378;2023-02-19T17:21:30;9.90;74.30
76168;DHT22;64927;48.214;16.378;2023-02-19T17:23:57;9.90;74.10
76168;DHT22;64927;48.214;16.378;2023-02-19T17:26:26;9.90;74.60
76168;DHT22;64927;48.214;16.378;2023-02-19T17:28:55;9.90;74.70
76168;DHT22;64927;48.214;16.378;2023-02-19T17:31:22;9.90;74.70
76168;DHT22;64927;48.214;16.378;2023-02-19T17:33:48;9.90;74.80
76168;DHT22;64927;48.214;16.378;2023-02-19T17:36:28;10.00;74.50
76168;DHT22;64927;48.214;16.378;2023-02-19T17:38:57;10.00;75.20
76168;DHT22;64927;48.214;16.378;2023-02-19T17:41:23;10.00;75.00
76168;DHT22;64927;48.214;16.378;2023-02-19T17:43:49;9.90;75.20
76168;DHT22;64927;48.214;16.378;2023-02-19T17:46:21;9.80;75.60
76168;DHT22;64927;48.214;16.378;2023-02-19T17:48:48;9.80;76.10
76168;DHT22;64927;48.214;16.378;2023-02-19T17:51:14;9.80;76.10
76168;DHT22;64927;48.214;16.378;2023-02-19T17:53:41;9.80;75.50
76168;DHT22;64927;48.214;16.378;2023-02-19T17:56:07;9.80;75.30
76168;DHT22;64927;48.214;16.378;2023-02-19T17:58:36;9.90;75.70
76168;DHT22;64927;48.214;16.378;2023-02-19T18:01:02;9.90;75.00
76168;DHT22;64927;48.214;16.378;2023-02-19T18:03:28;9.90;74.60
76168;DHT22;64927;48.214;16.378;2023-02-19T18:05:57;9.90;74.50
76168;DHT22;64927;48.214;16.378;2023-02-19T18:08:23;9.90;74.10